Time;durP1;ratioP1;P1;durP2;ratioP2;P2;SDS_P1;SDS_P2;PMS_P1;PMS_P2;Temp;Humidity;BMP_temperature;BMP_pressure;BME280_temperature;BME280_humidity;BME280_pressure;Samples;Min_cycle;Max_cycle;Signal;HPM_P1;HPM_P2
2023/11/06 00:00:20;;;;;;;22.58;6.80;;;;;;;;;;5129741;27;20068;-41
2023/11/06 00:02:48;;;;;;;26.75;6.18;;;;;;;;;;5125838;27;20039;-41
2023/11/06 00:05:15;;;;;;;21.15;5.63;;;;;;;;;;5132151;27;20541;-42
2023/11/06 00:07:42;;;;;;;25.15;5.55;;;;;;;;;;5132858;27;20039;-41
2023/11/06 00:10:11;;;;;;;21.30;5.72;;;;;;;;;;5133052;27;20061;-40
2023/11/06 00:12:39;;;;;;;20.55;5.82;;;;;;;;;;5132021;27;20423;-40
2023/11/06 00:15:07;;;;;;;21.10;5.93;;;;;;;;;;5132315;27;20034;-42
2023/11/06 00:17:34;;;;;;;22.23;5.70;;;;;;;;;;5131763;27;20041;-42
2023/11/06 00:20:03;;;;;;;17.30;5.47;;;;;;;;;;5132442;27;20504;-41
2023/11/06 00:22:33;;;;;;;19.77;5.40;;;;;;;;;;5131698;27;20070;-41
2023/11/06 00:25:00;;;;;;;20.55;5.57;;;;;;;;;;5128651;27;20434;-39
2023/11/06 00:27:27;;;;;;;17.13;5.05;;;;;;;;;;5132355;27;20098;-42
2023/11/06 00:29:54;;;;;;;15.40;4.97;;;;;;;;;;5132195;27;20023;-41
2023/11/06 00:32:22;;;;;;;15.20;5.32;;;;;;;;;;5132254;27;20042;-40
2023/11/06 00:34:49;;;;;;;18.45;5.05;;;;;;;;;;5132134;27;20027;-42
2023/11/06 00:37:16;;;;;;;16.05;5.13;;;;;;;;;;5132288;27;20034;-40
2023/11/06 00:39:43;;;;;;;17.52;5.00;;;;;;;;;;5132937;27;20130;-40
2023/11/06 00:42:10;;;;;;;17.67;5.30;;;;;;;;;;5132795;27;20039;-39
2023/11/06 00:44:37;;;;;;;15.75;5.13;;;;;;;;;;5130767;27;20023;-41
2023/11/06 00:47:04;;;;;;;20.95;5.32;;;;;;;;;;5132580;27;20027;-40
2023/11/06 00:49:31;;;;;;;21.15;4.65;;;;;;;;;;5113769;27;20083;-41
2023/11/06 00:51:58;;;;;;;20.80;4.63;;;;;;;;;;5132791;27;20027;-42
2023/11/06 00:54:25;;;;;;;14.70;4.72;;;;;;;;;;5131740;27;20096;-40
2023/11/06 00:56:52;;;;;;;19.73;5.05;;;;;;;;;;5132117;27;20429;-40
2023/11/06 00:59:20;;;;;;;18.83;4.50;;;;;;;;;;5131943;27;20031;-41
2023/11/06 01:01:47;;;;;;;21.92;4.72;;;;;;;;;;5131917;27;20507;-39
2023/11/06 01:04:14;;;;;;;11.57;4.22;;;;;;;;;;5113009;27;20070;-42
2023/11/06 01:06:42;;;;;;;12.43;4.07;;;;;;;;;;5132312;27;20532;-44
2023/11/06 01:09:09;;;;;;;14.85;4.15;;;;;;;;;;5130916;27;20046;-40
2023/11/06 01:11:36;;;;;;;20.70;4.40;;;;;;;;;;5131952;27;20035;-40
2023/11/06 01:14:03;;;;;;;16.73;3.92;;;;;;;;;;5132118;27;20023;-41
2023/11/06 01:16:30;;;;;;;13.00;3.85;;;;;;;;;;5131504;27;20031;-40
2023/11/06 01:18:57;;;;;;;15.55;4.20;;;;;;;;;;5131677;27;20027;-40
2023/11/06 01:21:24;;;;;;;14.82;4.22;;;;;;;;;;5112176;28;20582;-40
2023/11/06 01:23:51;;;;;;;13.93;3.97;;;;;;;;;;5131606;28;20023;-41
2023/11/06 01:26:18;;;;;;;16.48;3.83;;;;;;;;;;5131759;28;20023;-41
2023/11/06 01:28:45;;;;;;;18.40;3.85;;;;;;;;;;5131547;28;20370;-41
2023/11/06 01:31:12;;;;;;;14.85;4.10;;;;;;;;;;5132345;28;20019;-42
2023/11/06 01:33:39;;;;;;;17.65;4.13;;;;;;;;;;5131468;28;20062;-50
2023/11/06 01:36:08;;;;;;;19.73;3.90;;;;;;;;;;5130946;28;20023;-41
2023/11/06 01:38:39;;;;;;;11.80;3.45;;;;;;;;;;5131198;28;20039;-41
2023/11/06 01:41:06;;;;;;;12.10;3.78;;;;;;;;;;5131213;28;20032;-42
2023/11/06 01:43:33;;;;;;;15.70;4.15;;;;;;;;;;5134345;27;20027;-41
2023/11/06 01:46:00;;;;;;;25.98;4.47;;;;;;;;;;5134578;27;20114;-45
2023/11/06 01:48:29;;;;;;;50.63;5.85;;;;;;;;;;5136249;27;20070;-43
2023/11/06 01:50:56;;;;;;;23.52;4.93;;;;;;;;;;5135653;27;20392;-40
2023/11/06 01:53:23;;;;;;;18.42;4.07;;;;;;;;;;5135444;27;20114;-41
2023/11/06 01:55:51;;;;;;;19.95;3.60;;;;;;;;;;5134042;27;20035;-40
2023/11/06 01:58:19;;;;;;;12.05;3.05;;;;;;;;;;5135994;27;20046;-40
2023/11/06 02:00:48;;;;;;;10.25;3.05;;;;;;;;;;5135898;27;20098;-40
2023/11/06 02:03:16;;;;;;;8.65;3.03;;;;;;;;;;5135983;27;20147;-40
2023/11/06 02:05:44;;;;;;;11.45;3.05;;;;;;;;;;5135135;27;20030;-41
2023/11/06 02:08:16;;;;;;;9.27;2.90;;;;;;;;;;5135899;27;20034;-40
2023/11/06 02:10:44;;;;;;;10.35;2.90;;;;;;;;;;5136089;27;20031;-40
2023/11/06 02:13:11;;;;;;;9.40;2.80;;;;;;;;;;5135885;27;20084;-42
2023/11/06 02:15:40;;;;;;;9.27;2.97;;;;;;;;;;5135314;27;20378;-47
2023/11/06 02:18:08;;;;;;;6.50;2.35;;;;;;;;;;5134259;27;20493;-43
2023/11/06 02:20:38;;;;;;;7.00;2.50;;;;;;;;;;5135611;27;20031;-42
2023/11/06 02:23:08;;;;;;;9.38;2.60;;;;;;;;;;5116056;27;20042;-43
2023/11/06 02:25:35;;;;;;;10.88;2.70;;;;;;;;;;5135054;27;20030;-41
2023/11/06 02:28:03;;;;;;;10.88;2.45;;;;;;;;;;5117390;27;20034;-41
2023/11/06 02:30:31;;;;;;;8.40;2.33;;;;;;;;;;5133683;27;20038;-45
2023/11/06 02:32:58;;;;;;;11.77;2.85;;;;;;;;;;5135240;27;20473;-42
2023/11/06 02:35:25;;;;;;;8.07;3.00;;;;;;;;;;5131444;27;20550;-42
2023/11/06 02:37:53;;;;;;;12.75;2.60;;;;;;;;;;5125333;27;20023;-43
2023/11/06 02:40:20;;;;;;;12.95;2.60;;;;;;;;;;5120604;22;20084;-38
2023/11/06 02:42:47;;;;;;;12.07;2.60;;;;;;;;;;5061574;28;20075;-35
2023/11/06 02:45:15;;;;;;;13.10;2.75;;;;;;;;;;5053759;28;20025;-35
2023/11/06 02:47:42;;;;;;;12.52;2.67;;;;;;;;;;5054087;28;20025;-37
2023/11/06 02:50:13;;;;;;;14.32;2.67;;;;;;;;;;5070462;28;20090;-37
2023/11/06 02:52:40;;;;;;;12.10;2.97;;;;;;;;;;5074124;28;20031;-36
2023/11/06 02:55:07;;;;;;;9.43;2.40;;;;;;;;;;5073168;28;20027;-36
2023/11/06 02:57:35;;;;;;;16.67;4.00;;;;;;;;;;5073773;28;20496;-36
2023/11/06 03:00:07;;;;;;;17.55;3.50;;;;;;;;;;5073793;28;20029;-37
2023/11/06 03:02:35;;;;;;;16.05;3.92;;;;;;;;;;5062968;28;20123;-36
2023/11/06 03:05:06;;;;;;;15.48;4.00;;;;;;;;;;5073209;28;20063;-36
2023/11/06 03:07:37;;;;;;;21.10;3.90;;;;;;;;;;5073501;28;20047;-37
2023/11/06 03:10:04;;;;;;;19.35;3.25;;;;;;;;;;5073515;28;20040;-36
2023/11/06 03:12:32;;;;;;;15.88;3.30;;;;;;;;;;5072125;28;20478;-36
2023/11/06 03:14:59;;;;;;;16.70;3.30;;;;;;;;;;5067456;28;20118;-36
2023/11/06 03:17:27;;;;;;;14.32;3.20;;;;;;;;;;5051044;28;20029;-37
2023/11/06 03:19:54;;;;;;;16.40;3.33;;;;;;;;;;5058647;28;20531;-35
2023/11/06 03:22:22;;;;;;;8.05;2.58;;;;;;;;;;5070588;28;20434;-36
2023/11/06 03:24:49;;;;;;;13.90;3.10;;;;;;;;;;5068874;28;20442;-36
2023/11/06 03:27:16;;;;;;;15.50;2.70;;;;;;;;;;5063187;28;20034;-36
2023/11/06 03:29:44;;;;;;;13.50;3.00;;;;;;;;;;5071660;28;20031;-36
2023/11/06 03:32:11;;;;;;;13.02;3.38;;;;;;;;;;5071906;28;20370;-36
2023/11/06 03:34:38;;;;;;;12.57;2.80;;;;;;;;;;5072001;28;20482;-35
2023/11/06 03:37:08;;;;;;;9.25;2.25;;;;;;;;;;5071066;28;20024;-35
2023/11/06 03:39:35;;;;;;;9.38;2.92;;;;;;;;;;5065334;28;20087;-35
2023/11/06 03:42:03;;;;;;;7.65;2.90;;;;;;;;;;5072686;28;20494;-35
2023/11/06 03:44:30;;;;;;;15.95;2.72;;;;;;;;;;5072800;28;20028;-35
2023/11/06 03:46:57;;;;;;;10.23;2.63;;;;;;;;;;5072802;28;20043;-38
2023/11/06 03:49:25;;;;;;;7.47;2.30;;;;;;;;;;5072898;28;20055;-38
2023/11/06 03:51:52;;;;;;;10.38;2.38;;;;;;;;;;5072510;28;20032;-38
2023/11/06 03:54:19;;;;;;;9.00;2.28;;;;;;;;;;5072830;28;20027;-38
2023/11/06 03:56:46;;;;;;;6.72;2.50;;;;;;;;;;5072908;28;20028;-38
2023/11/06 03:59:14;;;;;;;8.38;2.22;;;;;;;;;;5072878;28;20021;-38
2023/11/06 04:01:40;;;;;;;7.05;2.35;;;;;;;;;;5072558;28;20409;-38
2023/11/06 04:04:07;;;;;;;6.80;2.17;;;;;;;;;;5072683;28;20429;-38
2023/11/06 04:06:34;;;;;;;10.13;2.38;;;;;;;;;;5071800;28;20031;-39
2023/11/06 04:09:03;;;;;;;6.53;2.20;;;;;;;;;;5072662;28;20163;-38
2023/11/06 04:11:30;;;;;;;7.50;1.80;;;;;;;;;;5072406;28;20037;-38
2023/11/06 04:13:58;;;;;;;8.07;1.80;;;;;;;;;;5071136;28;20024;-38
2023/11/06 04:16:25;;;;;;;6.57;2.10;;;;;;;;;;5072303;28;20119;-38
2023/11/06 04:18:52;;;;;;;10.70;2.05;;;;;;;;;;5072509;28;20063;-38
2023/11/06 04:21:19;;;;;;;5.88;2.05;;;;;;;;;;5072244;28;20119;-38
2023/11/06 04:23:46;;;;;;;7.32;2.15;;;;;;;;;;5072464;28;20119;-38
2023/11/06 04:26:13;;;;;;;8.00;2.08;;;;;;;;;;5072398;28;20060;-38
2023/11/06 04:28:40;;;;;;;6.85;2.15;;;;;;;;;;5072252;28;20032;-38
2023/11/06 04:31:08;;;;;;;7.43;2.00;;;;;;;;;;5071992;28;20032;-38
2023/11/06 04:33:35;;;;;;;6.68;1.73;;;;;;;;;;5072207;28;20473;-38
2023/11/06 04:36:02;;;;;;;6.63;1.73;;;;;;;;;;5072306;28;20029;-38
2023/11/06 04:38:29;;;;;;;4.40;1.70;;;;;;;;;;5072141;28;20029;-38
2023/11/06 04:40:56;;;;;;;4.60;1.80;;;;;;;;;;5071736;28;20044;-39
2023/11/06 04:43:23;;;;;;;8.75;2.13;;;;;;;;;;5070754;28;20104;-38
2023/11/06 04:45:50;;;;;;;6.97;1.70;;;;;;;;;;5072067;28;20028;-38
2023/11/06 04:48:17;;;;;;;4.68;1.50;;;;;;;;;;5071969;28;20021;-39
2023/11/06 04:50:44;;;;;;;3.35;1.73;;;;;;;;;;5070407;28;20436;-38
2023/11/06 04:53:11;;;;;;;4.57;1.20;;;;;;;;;;5072003;28;20021;-38
2023/11/06 04:55:38;;;;;;;6.28;1.40;;;;;;;;;;5071941;28;20036;-38
2023/11/06 04:58:05;;;;;;;4.57;1.40;;;;;;;;;;5071979;28;20046;-38
2023/11/06 05:00:32;;;;;;;5.95;1.38;;;;;;;;;;5071735;28;20025;-38
2023/11/06 05:02:59;;;;;;;5.25;1.55;;;;;;;;;;5071678;28;20497;-38
2023/11/06 05:05:27;;;;;;;4.18;1.30;;;;;;;;;;5071765;28;20043;-38
2023/11/06 05:07:54;;;;;;;3.35;1.13;;;;;;;;;;5071734;28;20051;-38
2023/11/06 05:10:20;;;;;;;5.15;1.58;;;;;;;;;;5071706;28;20020;-38
2023/11/06 05:12:47;;;;;;;3.80;1.20;;;;;;;;;;5071714;28;20175;-38
2023/11/06 05:15:14;;;;;;;4.13;1.08;;;;;;;;;;5071630;28;20449;-38
2023/11/06 05:17:41;;;;;;;7.57;1.50;;;;;;;;;;5071415;28;20397;-38
2023/11/06 05:20:09;;;;;;;4.78;1.45;;;;;;;;;;5071476;28;20024;-38
2023/11/06 05:22:37;;;;;;;3.45;1.40;;;;;;;;;;5071571;28;20055;-38
2023/11/06 05:25:04;;;;;;;4.35;1.38;;;;;;;;;;5071611;28;20032;-38
2023/11/06 05:27:31;;;;;;;3.58;1.20;;;;;;;;;;5071512;28;20099;-38
2023/11/06 05:29:58;;;;;;;2.35;0.88;;;;;;;;;;5071390;28;20028;-38
2023/11/06 05:32:25;;;;;;;3.90;1.10;;;;;;;;;;5071514;28;20089;-38
2023/11/06 05:34:53;;;;;;;4.10;1.13;;;;;;;;;;5071546;28;20028;-38
2023/11/06 05:37:20;;;;;;;3.75;1.10;;;;;;;;;;5071393;28;20077;-37
2023/11/06 05:39:47;;;;;;;4.25;1.23;;;;;;;;;;5071469;28;20032;-38
2023/11/06 05:42:14;;;;;;;2.92;1.02;;;;;;;;;;5071110;28;20124;-38
2023/11/06 05:44:43;;;;;;;3.45;1.02;;;;;;;;;;5071309;28;20063;-38
2023/11/06 05:47:10;;;;;;;3.95;1.30;;;;;;;;;;5071471;28;20048;-38
2023/11/06 05:49:38;;;;;;;4.75;0.98;;;;;;;;;;5071312;28;20032;-39
2023/11/06 05:52:05;;;;;;;4.00;1.02;;;;;;;;;;5071268;28;20047;-38
2023/11/06 05:54:32;;;;;;;4.22;1.35;;;;;;;;;;5071349;28;20035;-38
2023/11/06 05:56:59;;;;;;;2.25;1.00;;;;;;;;;;5071159;28;20441;-38
2023/11/06 05:59:26;;;;;;;1.83;0.93;;;;;;;;;;5071324;28;20471;-38
2023/11/06 06:01:53;;;;;;;2.55;0.95;;;;;;;;;;5069737;28;20040;-38
2023/11/06 06:04:21;;;;;;;2.72;1.15;;;;;;;;;;5071237;28;20028;-38
2023/11/06 06:06:50;;;;;;;4.55;1.20;;;;;;;;;;5071095;28;20039;-38
2023/11/06 06:09:18;;;;;;;4.20;1.00;;;;;;;;;;5071018;28;20116;-38
2023/11/06 06:11:46;;;;;;;2.67;0.85;;;;;;;;;;5070922;28;20417;-38
2023/11/06 06:14:13;;;;;;;2.05;0.70;;;;;;;;;;5071059;28;20056;-38
2023/11/06 06:16:40;;;;;;;2.70;0.90;;;;;;;;;;5071136;28;20026;-38
2023/11/06 06:19:07;;;;;;;3.65;0.80;;;;;;;;;;5071045;28;20060;-38
2023/11/06 06:21:34;;;;;;;3.03;0.85;;;;;;;;;;5070903;28;20033;-38
2023/11/06 06:24:01;;;;;;;2.40;0.90;;;;;;;;;;5071082;28;20032;-38
2023/11/06 06:26:29;;;;;;;3.53;0.93;;;;;;;;;;5071067;28;20054;-38
2023/11/06 06:28:56;;;;;;;1.48;0.70;;;;;;;;;;5072279;28;20112;-39
2023/11/06 06:31:23;;;;;;;3.17;0.80;;;;;;;;;;5074582;28;20024;-38
2023/11/06 06:33:49;;;;;;;1.08;0.68;;;;;;;;;;5074572;28;20771;-38
2023/11/06 06:36:16;;;;;;;2.13;0.85;;;;;;;;;;5074562;28;20025;-38
2023/11/06 06:38:43;;;;;;;1.63;0.90;;;;;;;;;;5074517;28;20032;-38
2023/11/06 06:41:10;;;;;;;1.33;0.88;;;;;;;;;;5074115;28;20502;-37
2023/11/06 06:43:37;;;;;;;1.83;0.65;;;;;;;;;;5074641;28;20032;-39
2023/11/06 06:46:05;;;;;;;1.20;0.90;;;;;;;;;;5074305;28;20545;-38
2023/11/06 06:48:32;;;;;;;1.67;0.73;;;;;;;;;;5074372;28;20120;-38
2023/11/06 06:50:59;;;;;;;1.52;0.80;;;;;;;;;;5074198;28;20017;-38
2023/11/06 06:53:26;;;;;;;2.53;0.80;;;;;;;;;;5074136;28;20409;-38
2023/11/06 06:55:53;;;;;;;3.75;1.00;;;;;;;;;;5074094;28;20394;-38
2023/11/06 06:58:21;;;;;;;1.52;0.68;;;;;;;;;;5074086;28;20025;-38
2023/11/06 07:00:49;;;;;;;2.55;0.77;;;;;;;;;;5073789;28;20035;-38
2023/11/06 07:03:16;;;;;;;0.90;0.57;;;;;;;;;;5074223;28;20054;-38
2023/11/06 07:05:43;;;;;;;1.40;0.70;;;;;;;;;;5074011;28;20038;-38
2023/11/06 07:08:10;;;;;;;4.10;0.80;;;;;;;;;;5073993;28;20020;-38
2023/11/06 07:10:37;;;;;;;2.05;0.65;;;;;;;;;;5073643;28;20497;-38
2023/11/06 07:13:04;;;;;;;1.42;0.77;;;;;;;;;;5073935;28;20175;-39
2023/11/06 07:15:31;;;;;;;2.97;0.93;;;;;;;;;;5073775;28;20077;-38
2023/11/06 07:17:59;;;;;;;2.42;0.90;;;;;;;;;;5073802;28;20486;-38
2023/11/06 07:20:27;;;;;;;1.15;0.50;;;;;;;;;;5073476;28;20114;-38
2023/11/06 07:22:55;;;;;;;1.50;0.65;;;;;;;;;;5073525;28;20064;-38
2023/11/06 07:25:22;;;;;;;2.55;0.70;;;;;;;;;;5073466;28;20028;-38
2023/11/06 07:27:49;;;;;;;1.50;0.63;;;;;;;;;;5073618;28;20029;-38
2023/11/06 07:30:16;;;;;;;3.33;0.70;;;;;;;;;;5073650;28;20075;-38
2023/11/06 07:32:43;;;;;;;1.25;0.50;;;;;;;;;;5073551;28;20024;-40
2023/11/06 07:35:11;;;;;;;3.53;0.82;;;;;;;;;;5073419;28;20051;-38
2023/11/06 07:37:39;;;;;;;1.65;0.70;;;;;;;;;;5073242;28;20033;-38
2023/11/06 07:40:08;;;;;;;1.00;0.45;;;;;;;;;;5073087;28;20120;-38
2023/11/06 07:42:35;;;;;;;1.20;0.80;;;;;;;;;;5072857;28;20487;-38
2023/11/06 07:45:03;;;;;;;1.40;0.70;;;;;;;;;;5073215;28;20099;-38
2023/11/06 07:47:30;;;;;;;4.28;0.80;;;;;;;;;;5073174;28;20029;-38
2023/11/06 07:49:57;;;;;;;2.75;0.63;;;;;;;;;;5073054;28;20031;-39
2023/11/06 07:52:24;;;;;;;1.63;0.68;;;;;;;;;;5073086;28;20559;-38
2023/11/06 07:54:51;;;;;;;1.33;0.70;;;;;;;;;;5073024;28;20099;-38
2023/11/06 07:57:18;;;;;;;0.85;0.65;;;;;;;;;;5072993;28;20481;-38
2023/11/06 07:59:45;;;;;;;1.23;0.60;;;;;;;;;;5073064;28;20028;-38
2023/11/06 08:02:12;;;;;;;1.90;0.73;;;;;;;;;;5072745;28;20037;-38
2023/11/06 08:04:40;;;;;;;3.58;0.80;;;;;;;;;;5072963;28;20021;-38
2023/11/06 08:07:07;;;;;;;1.65;0.80;;;;;;;;;;5072793;28;20054;-38
2023/11/06 08:09:34;;;;;;;1.20;0.50;;;;;;;;;;5072670;28;20028;-38
2023/11/06 08:12:01;;;;;;;2.38;0.60;;;;;;;;;;5072577;28;20467;-38
2023/11/06 08:14:28;;;;;;;1.67;0.63;;;;;;;;;;5072618;28;20031;-38
2023/11/06 08:16:56;;;;;;;1.67;0.77;;;;;;;;;;5072707;28;20024;-38
2023/11/06 08:19:23;;;;;;;1.42;0.60;;;;;;;;;;5072534;28;20477;-38
2023/11/06 08:21:50;;;;;;;1.05;0.50;;;;;;;;;;5072137;28;20047;-38
2023/11/06 08:24:17;;;;;;;1.02;0.60;;;;;;;;;;5072521;28;20033;-38
2023/11/06 08:26:44;;;;;;;2.30;0.70;;;;;;;;;;5072446;28;20029;-40
2023/11/06 08:29:11;;;;;;;1.92;0.70;;;;;;;;;;5072407;28;20108;-38
2023/11/06 08:31:40;;;;;;;2.63;0.80;;;;;;;;;;5072244;28;20482;-38
2023/11/06 08:34:07;;;;;;;1.38;0.70;;;;;;;;;;5072032;28;20032;-38
2023/11/06 08:36:34;;;;;;;1.95;0.70;;;;;;;;;;5072159;28;20024;-38
2023/11/06 08:39:00;;;;;;;1.13;0.60;;;;;;;;;;5072251;28;20025;-38
2023/11/06 08:41:27;;;;;;;3.03;0.50;;;;;;;;;;5071852;28;20186;-38
2023/11/06 08:43:54;;;;;;;1.25;0.70;;;;;;;;;;5072151;28;20035;-38
2023/11/06 08:46:21;;;;;;;2.25;0.60;;;;;;;;;;5072024;28;20027;-38
2023/11/06 08:48:48;;;;;;;3.63;0.82;;;;;;;;;;5072039;28;20142;-38
2023/11/06 08:51:15;;;;;;;2.30;0.60;;;;;;;;;;5071465;28;20489;-38
2023/11/06 08:53:42;;;;;;;1.17;0.63;;;;;;;;;;5072045;28;20474;-38
2023/11/06 08:56:10;;;;;;;3.22;0.70;;;;;;;;;;5071970;28;20032;-38
2023/11/06 08:58:38;;;;;;;2.08;0.73;;;;;;;;;;5071806;28;20086;-38
2023/11/06 09:01:06;;;;;;;1.83;0.70;;;;;;;;;;5071667;28;20039;-38
2023/11/06 09:03:33;;;;;;;1.98;0.80;;;;;;;;;;5071928;28;20043;-38
2023/11/06 09:06:00;;;;;;;1.45;0.70;;;;;;;;;;5071797;28;20070;-38
2023/11/06 09:08:27;;;;;;;2.28;0.75;;;;;;;;;;5071779;28;20021;-38
2023/11/06 09:10:54;;;;;;;1.45;0.60;;;;;;;;;;5071604;28;20028;-38
2023/11/06 09:13:21;;;;;;;1.85;0.77;;;;;;;;;;5071769;28;20036;-38
2023/11/06 09:15:49;;;;;;;1.83;0.60;;;;;;;;;;5071774;28;20040;-38
2023/11/06 09:18:20;;;;;;;0.70;0.55;;;;;;;;;;5071601;28;20490;-38
2023/11/06 09:20:48;;;;;;;1.17;0.52;;;;;;;;;;5071588;28;20401;-38
2023/11/06 09:23:15;;;;;;;1.33;0.68;;;;;;;;;;5071508;28;20131;-38
2023/11/06 09:25:41;;;;;;;1.40;0.80;;;;;;;;;;5071300;28;20032;-39
2023/11/06 09:28:08;;;;;;;1.27;0.43;;;;;;;;;;5071228;28;20032;-38
2023/11/06 09:30:35;;;;;;;1.60;0.50;;;;;;;;;;5071169;28;20543;-38
2023/11/06 09:33:02;;;;;;;1.10;0.50;;;;;;;;;;5071574;28;20402;-37
2023/11/06 09:35:29;;;;;;;0.95;0.57;;;;;;;;;;5071436;28;20032;-38
2023/11/06 09:37:56;;;;;;;1.48;0.60;;;;;;;;;;5055745;28;20053;-36
2023/11/06 09:40:23;;;;;;;1.92;0.68;;;;;;;;;;5070705;28;20033;-37
2023/11/06 09:42:50;;;;;;;2.08;0.70;;;;;;;;;;5070734;28;20048;-36
2023/11/06 09:45:17;;;;;;;0.90;0.50;;;;;;;;;;5071392;28;20035;-37
2023/11/06 09:47:53;;;;;;;1.13;0.60;;;;;;;;;;5070685;28;20029;-37
2023/11/06 09:50:21;;;;;;;1.45;0.80;;;;;;;;;;5071269;28;20081;-37
2023/11/06 09:52:49;;;;;;;1.45;0.70;;;;;;;;;;5071374;28;20103;-37
2023/11/06 09:55:19;;;;;;;1.60;0.70;;;;;;;;;;5071363;28;20016;-37
2023/11/06 09:57:50;;;;;;;1.30;0.70;;;;;;;;;;5071316;28;20028;-36
2023/11/06 10:00:17;;;;;;;2.58;0.65;;;;;;;;;;5071290;28;20771;-36
2023/11/06 10:02:52;;;;;;;3.67;0.77;;;;;;;;;;5071303;28;20028;-37
2023/11/06 10:05:20;;;;;;;1.02;0.60;;;;;;;;;;5074691;28;20163;-37
2023/11/06 10:07:51;;;;;;;2.58;0.80;;;;;;;;;;5071469;28;20041;-37
2023/11/06 10:10:20;;;;;;;2.17;0.75;;;;;;;;;;5074893;28;20033;-36
2023/11/06 10:13:01;;;;;;;3.22;1.05;;;;;;;;;;5075046;28;20094;-37
2023/11/06 10:15:28;;;;;;;2.85;1.00;;;;;;;;;;5074869;28;20060;-37
2023/11/06 10:17:56;;;;;;;2.05;0.90;;;;;;;;;;5074871;28;20486;-37
2023/11/06 10:20:29;;;;;;;3.13;0.90;;;;;;;;;;5060578;28;20033;-37
2023/11/06 10:22:57;;;;;;;4.00;0.93;;;;;;;;;;5054653;28;20037;-37
2023/11/06 10:25:30;;;;;;;5.05;1.23;;;;;;;;;;5054774;28;20036;-37
2023/11/06 10:27:57;;;;;;;4.00;0.85;;;;;;;;;;5071285;28;20024;-37
2023/11/06 10:30:25;;;;;;;1.88;0.60;;;;;;;;;;5074108;28;20056;-37
2023/11/06 10:32:52;;;;;;;1.70;0.90;;;;;;;;;;5073717;28;20040;-36
2023/11/06 10:35:19;;;;;;;5.57;1.00;;;;;;;;;;5074481;28;20115;-37
2023/11/06 10:37:47;;;;;;;3.95;1.00;;;;;;;;;;5074551;28;20468;-36
2023/11/06 10:40:18;;;;;;;3.03;1.05;;;;;;;;;;5074413;28;20039;-37
2023/11/06 10:42:46;;;;;;;2.60;0.82;;;;;;;;;;5073604;28;20049;-37
2023/11/06 10:45:14;;;;;;;3.20;1.13;;;;;;;;;;5074212;28;20035;-37
2023/11/06 10:47:54;;;;;;;4.38;1.00;;;;;;;;;;5074357;28;20033;-37
2023/11/06 10:50:24;;;;;;;3.90;0.90;;;;;;;;;;5074167;28;20519;-36
2023/11/06 10:52:57;;;;;;;4.97;0.93;;;;;;;;;;5073173;28;20094;-37
2023/11/06 10:55:26;;;;;;;5.03;1.20;;;;;;;;;;5066056;28;20044;-42
2023/11/06 10:57:54;;;;;;;2.90;0.98;;;;;;;;;;5073387;28;20086;-37
2023/11/06 11:00:22;;;;;;;4.90;1.05;;;;;;;;;;5073861;28;20040;-36
2023/11/06 11:02:55;;;;;;;2.58;1.00;;;;;;;;;;5073298;28;20049;-37
2023/11/06 11:05:28;;;;;;;3.67;1.08;;;;;;;;;;5072339;28;20107;-37
2023/11/06 11:07:56;;;;;;;3.17;1.05;;;;;;;;;;5068979;28;20032;-38
2023/11/06 11:10:27;;;;;;;4.53;1.15;;;;;;;;;;5073042;28;20486;-38
2023/11/06 11:12:57;;;;;;;3.33;0.75;;;;;;;;;;5073076;28;20047;-37
2023/11/06 11:15:25;;;;;;;5.22;1.30;;;;;;;;;;5071416;28;20032;-38
2023/11/06 11:18:10;;;;;;;3.05;1.00;;;;;;;;;;5068763;28;20031;-37
2023/11/06 11:20:57;;;;;;;2.55;0.80;;;;;;;;;;5070910;28;20124;-37
2023/11/06 11:23:45;;;;;;;29.25;2.33;;;;;;;;;;5071497;28;20072;-36
2023/11/06 11:26:12;;;;;;;16.65;1.73;;;;;;;;;;5072853;28;20448;-37
2023/11/06 11:28:57;;;;;;;7.88;1.70;;;;;;;;;;5070849;28;20060;-36
2023/11/06 11:31:39;;;;;;;4.82;1.48;;;;;;;;;;5072464;28;20461;-36
2023/11/06 11:34:06;;;;;;;;;;;;;;;;;;5059446;28;20090;-37
2023/11/06 11:36:40;;;;;;;7.25;1.10;;;;;;;;;;5052890;28;19909;-36
2023/11/06 11:39:14;;;;;;;3.13;1.27;;;;;;;;;;5051612;28;20037;-39
2023/11/06 11:42:16;;;;;;;5.35;1.35;;;;;;;;;;5052549;28;20137;-37
2023/11/06 11:44:53;;;;;;;4.30;1.30;;;;;;;;;;5023013;28;20509;-36
2023/11/06 11:47:20;;;;;;;5.00;1.20;;;;;;;;;;5063793;28;20067;-39
2023/11/06 11:49:47;;;;;;;7.32;1.17;;;;;;;;;;5069806;28;20032;-38
2023/11/06 11:52:35;;;;;;;4.57;1.35;;;;;;;;;;5072727;28;20078;-38
2023/11/06 11:55:20;;;;;;;5.82;1.20;;;;;;;;;;5072419;28;20067;-38
2023/11/06 11:57:48;;;;;;;8.98;1.30;;;;;;;;;;5072337;28;20040;-40
2023/11/06 12:00:22;;;;;;;3.72;0.95;;;;;;;;;;5071220;28;20025;-39
2023/11/06 12:02:49;;;;;;;4.57;0.98;;;;;;;;;;5072641;28;20039;-40
2023/11/06 12:05:16;;;;;;;5.93;1.23;;;;;;;;;;5072332;28;20086;-40
2023/11/06 12:07:44;;;;;;;4.90;1.40;;;;;;;;;;5072597;28;20119;-39
2023/11/06 12:10:15;;;;;;;10.10;1.42;;;;;;;;;;5070405;28;20044;-40
2023/11/06 12:12:41;;;;;;;11.30;1.17;;;;;;;;;;5072504;28;20037;-39
2023/11/06 12:15:10;;;;;;;6.22;1.20;;;;;;;;;;5071765;28;20379;-39
2023/11/06 12:17:38;;;;;;;8.32;1.50;;;;;;;;;;5071401;28;20040;-39
2023/11/06 12:20:15;;;;;;;6.30;1.40;;;;;;;;;;5071769;28;20046;-45
2023/11/06 12:22:45;;;;;;;4.43;0.95;;;;;;;;;;5071359;28;20085;-40
2023/11/06 12:25:14;;;;;;;7.90;1.70;;;;;;;;;;5071563;28;20028;-41
2023/11/06 12:27:41;;;;;;;4.35;1.08;;;;;;;;;;5071344;28;20131;-40
2023/11/06 12:30:09;;;;;;;4.78;1.05;;;;;;;;;;5061820;28;20043;-41
2023/11/06 12:32:37;;;;;;;7.10;1.30;;;;;;;;;;5050612;28;20040;-39
2023/11/06 12:35:05;;;;;;;9.45;1.75;;;;;;;;;;5069298;28;20032;-39
2023/11/06 12:37:46;;;;;;;7.20;1.40;;;;;;;;;;5070414;28;20518;-39
2023/11/06 12:40:17;;;;;;;5.20;1.10;;;;;;;;;;5070919;28;20490;-39
2023/11/06 12:42:47;;;;;;;4.20;1.50;;;;;;;;;;5067880;28;20520;-39
2023/11/06 12:45:26;;;;;;;9.20;1.35;;;;;;;;;;5068859;28;20036;-39
2023/11/06 12:47:53;;;;;;;14.30;1.70;;;;;;;;;;5071809;28;20029;-39
2023/11/06 12:50:21;;;;;;;8.57;1.30;;;;;;;;;;5071693;28;20060;-38
2023/11/06 12:52:48;;;;;;;12.40;1.42;;;;;;;;;;5069646;28;20032;-39
2023/11/06 12:55:15;;;;;;;12.18;1.75;;;;;;;;;;5071129;28;20082;-39
2023/11/06 12:57:43;;;;;;;7.85;1.42;;;;;;;;;;5071971;28;20054;-39
2023/11/06 13:00:22;;;;;;;4.47;1.48;;;;;;;;;;5071626;28;20103;-39
2023/11/06 13:02:51;;;;;;;10.15;1.73;;;;;;;;;;5071334;28;20054;-39
2023/11/06 13:05:20;;;;;;;10.00;1.73;;;;;;;;;;5070190;28;20494;-40
2023/11/06 13:07:51;;;;;;;6.60;1.88;;;;;;;;;;5071818;28;20043;-39
2023/11/06 13:10:21;;;;;;;14.00;2.08;;;;;;;;;;5071740;28;20033;-39
2023/11/06 13:12:49;;;;;;;11.40;2.10;;;;;;;;;;5071795;28;20024;-39
2023/11/06 13:15:16;;;;;;;13.88;2.20;;;;;;;;;;5071776;28;20104;-39
2023/11/06 13:17:43;;;;;;;6.75;1.90;;;;;;;;;;5071767;28;20078;-39
2023/11/06 13:20:27;;;;;;;10.90;2.10;;;;;;;;;;5071613;28;20039;-39
2023/11/06 13:22:58;;;;;;;10.07;2.25;;;;;;;;;;5071529;28;20028;-39
2023/11/06 13:25:26;;;;;;;6.97;1.80;;;;;;;;;;5071539;28;20028;-39
2023/11/06 13:27:56;;;;;;;9.18;1.80;;;;;;;;;;5071519;28;20024;-39
2023/11/06 13:30:24;;;;;;;6.55;1.63;;;;;;;;;;5071503;28;20032;-39
2023/11/06 13:32:51;;;;;;;6.82;1.85;;;;;;;;;;5071462;28;20535;-38
2023/11/06 13:35:19;;;;;;;7.95;1.90;;;;;;;;;;5071595;28;20482;-41
2023/11/06 13:37:47;;;;;;;6.50;1.70;;;;;;;;;;5072572;28;20036;-39
2023/11/06 13:40:23;;;;;;;8.73;2.10;;;;;;;;;;5075571;28;20532;-39
2023/11/06 13:42:51;;;;;;;7.07;2.00;;;;;;;;;;5075332;28;20143;-39
2023/11/06 13:45:18;;;;;;;9.68;1.88;;;;;;;;;;5075502;28;20036;-39
2023/11/06 13:47:52;;;;;;;9.27;1.83;;;;;;;;;;5075582;28;20025;-39
2023/11/06 13:53:12;;;;;;;10.25;2.10;;;;;;;;;;5053737;28;20509;-39
2023/11/06 13:55:48;;;;;;;9.70;1.95;;;;;;;;;;5075393;28;20036;-39
2023/11/06 13:58:16;;;;;;;9.80;1.83;;;;;;;;;;5075273;28;20056;-39
2023/11/06 14:00:48;;;;;;;6.40;1.50;;;;;;;;;;5075229;28;20037;-38
2023/11/06 14:03:19;;;;;;;12.23;2.20;;;;;;;;;;5075054;28;20425;-40
2023/11/06 14:05:49;;;;;;;6.68;1.90;;;;;;;;;;5075142;28;20037;-39
2023/11/06 14:08:22;;;;;;;10.05;2.00;;;;;;;;;;5075033;28;20032;-39
2023/11/06 14:10:50;;;;;;;7.90;1.83;;;;;;;;;;5074848;28;20467;-42
2023/11/06 14:13:23;;;;;;;8.10;1.70;;;;;;;;;;5075015;28;20064;-38
2023/11/06 14:15:51;;;;;;;4.30;1.42;;;;;;;;;;5074943;28;20024;-39
2023/11/06 14:18:22;;;;;;;5.43;1.88;;;;;;;;;;5074950;28;20048;-39
2023/11/06 14:20:53;;;;;;;6.00;1.90;;;;;;;;;;5074845;28;20071;-39
2023/11/06 14:23:24;;;;;;;4.80;1.73;;;;;;;;;;5074805;28;20060;-40
2023/11/06 14:25:52;;;;;;;6.30;1.77;;;;;;;;;;5074762;28;20021;-41
2023/11/06 14:28:22;;;;;;;8.50;2.25;;;;;;;;;;5074706;28;20094;-39
2023/11/06 14:30:50;;;;;;;5.43;1.50;;;;;;;;;;5074572;28;20086;-39
2023/11/06 14:33:20;;;;;;;7.50;1.80;;;;;;;;;;5074699;28;20029;-40
2023/11/06 14:35:47;;;;;;;6.32;1.83;;;;;;;;;;5074547;28;20032;-38
2023/11/06 14:38:14;;;;;;;7.57;2.10;;;;;;;;;;5074588;28;20555;-39
2023/11/06 14:40:48;;;;;;;11.45;1.70;;;;;;;;;;5074184;28;20059;-38
2023/11/06 14:43:16;;;;;;;8.20;1.90;;;;;;;;;;5074338;28;20048;-39
2023/11/06 14:45:43;;;;;;;6.78;1.90;;;;;;;;;;5074672;28;20036;-39
2023/11/06 14:48:10;;;;;;;7.53;1.65;;;;;;;;;;5074407;28;20025;-39
2023/11/06 14:50:37;;;;;;;7.68;2.08;;;;;;;;;;5073495;28;20025;-39